sensor_id;sensor_type;location;lat;lon;timestamp;pressure;altitude;pressure_sealevel;temperature
68446;BMP280;35789;48.414;12.768;2023-03-01T00:00:00;97710.0;;;
68446;BMP280;35789;48.414;12.768;2023-03-01T00:05:00;97710.0;;;
68446;BMP280;35789;48.414;12.768;2023-03-01T00:10:00;97700.0;;;
68446;BMP280;35789;48.414;12.768;2023-03-01T00:15:00;97700.0;;;
68446;BMP280;35789;48.414;12.768;2023-03-01T00:20:00;97700.0;;;
68446;BMP280;35789;48.414;12.768;2023-03-01T00:25:00;97700.0;;;
68446;BMP280;35789;48.414;12.768;2023-03-01T00:30:01;97700.0;;;
68446;BMP280;35789;48.414;12.768;2023-03-01T00:35:00;97700.0;;;
68446;BMP280;35789;48.414;12.768;2023-03-01T00:40:00;97690.0;;;
68446;BMP280;35789;48.414;12.768;2023-03-01T00:45:00;97690.0;;;
68446;BMP280;35789;48.414;12.768;2023-03-01T00:50:00;97680.0;;;
68446;BMP280;35789;48.414;12.768;2023-03-01T00:55:00;97680.0;;;
68446;BMP280;35789;48.414;12.768;2023-03-01T01:00:01;97670.0;;;
68446;BMP280;35789;48.414;12.768;2023-03-01T01:05:00;97670.0;;;
68446;BMP280;35789;48.414;12.768;2023-03-01T01:10:01;97670.0;;;
68446;BMP280;35789;48.414;12.768;2023-03-01T01:15:00;97660.0;;;
68446;BMP280;35789;48.414;12.768;2023-03-01T01:20:00;97660.0;;;
68446;BMP280;35789;48.414;12.768;2023-03-01T01:25:00;97650.0;;;
68446;BMP280;35789;48.414;12.768;2023-03-01T01:30:01;97650.0;;;
68446;BMP280;35789;48.414;12.768;2023-03-01T01:35:01;97650.0;;;
68446;BMP280;35789;48.414;12.768;2023-03-01T01:40:02;97640.0;;;
68446;BMP280;35789;48.414;12.768;2023-03-01T01:45:24;97630.0;;;
68446;BMP280;35789;48.414;12.768;2023-03-01T01:50:01;97620.0;;;
68446;BMP280;35789;48.414;12.768;2023-03-01T01:55:05;97620.0;;;
68446;BMP280;35789;48.414;12.768;2023-03-01T02:00:07;97630.0;;;
68446;BMP280;35789;48.414;12.768;2023-03-01T02:05:09;97630.0;;;
68446;BMP280;35789;48.414;12.768;2023-03-01T02:10:00;97620.0;;;
68446;BMP280;35789;48.414;12.768;2023-03-01T02:15:00;97620.0;;;
68446;BMP280;35789;48.414;12.768;2023-03-01T02:20:12;97620.0;;;
68446;BMP280;35789;48.414;12.768;2023-03-01T02:25:12;97620.0;;;
68446;BMP280;35789;48.414;12.768;2023-03-01T02:30:00;97610.0;;;
68446;BMP280;35789;48.414;12.768;2023-03-01T02:35:01;97610.0;;;
68446;BMP280;35789;48.414;12.768;2023-03-01T02:40:07;97600.0;;;
68446;BMP280;35789;48.414;12.768;2023-03-01T02:45:00;97600.0;;;
68446;BMP280;35789;48.414;12.768;2023-03-01T02:55:04;97610.0;;;
68446;BMP280;35789;48.414;12.768;2023-03-01T03:00:07;97610.0;;;
68446;BMP280;35789;48.414;12.768;2023-03-01T03:05:00;97610.0;;;
68446;BMP280;35789;48.414;12.768;2023-03-01T03:10:02;97600.0;;;
68446;BMP280;35789;48.414;12.768;2023-03-01T03:15:00;97600.0;;;
68446;BMP280;35789;48.414;12.768;2023-03-01T03:20:00;97600.0;;;
68446;BMP280;35789;48.414;12.768;2023-03-01T03:25:00;97600.0;;;
68446;BMP280;35789;48.414;12.768;2023-03-01T03:30:00;97590.0;;;
68446;BMP280;35789;48.414;12.768;2023-03-01T03:35:00;97590.0;;;
68446;BMP280;35789;48.414;12.768;2023-03-01T03:40:00;97580.0;;;
68446;BMP280;35789;48.414;12.768;2023-03-01T03:45:00;97580.0;;;
68446;BMP280;35789;48.414;12.768;2023-03-01T03:50:00;97570.0;;;
68446;BMP280;35789;48.414;12.768;2023-03-01T03:55:00;97570.0;;;
68446;BMP280;35789;48.414;12.768;2023-03-01T04:00:01;97570.0;;;
68446;BMP280;35789;48.414;12.768;2023-03-01T04:05:00;97580.0;;;
68446;BMP280;35789;48.414;12.768;2023-03-01T04:10:00;97570.0;;;
68446;BMP280;35789;48.414;12.768;2023-03-01T04:15:00;97570.0;;;
68446;BMP280;35789;48.414;12.768;2023-03-01T04:20:00;97570.0;;;
68446;BMP280;35789;48.414;12.768;2023-03-01T04:25:00;97580.0;;;
68446;BMP280;35789;48.414;12.768;2023-03-01T04:30:02;97580.0;;;
68446;BMP280;35789;48.414;12.768;2023-03-01T04:35:00;97580.0;;;
68446;BMP280;35789;48.414;12.768;2023-03-01T04:40:00;97580.0;;;
68446;BMP280;35789;48.414;12.768;2023-03-01T04:45:00;97570.0;;;
68446;BMP280;35789;48.414;12.768;2023-03-01T04:50:00;97570.0;;;
68446;BMP280;35789;48.414;12.768;2023-03-01T04:55:00;97570.0;;;
68446;BMP280;35789;48.414;12.768;2023-03-01T05:00:00;97560.0;;;
68446;BMP280;35789;48.414;12.768;2023-03-01T05:05:00;97560.0;;;
68446;BMP280;35789;48.414;12.768;2023-03-01T05:10:00;97560.0;;;
68446;BMP280;35789;48.414;12.768;2023-03-01T05:15:00;97560.0;;;
68446;BMP280;35789;48.414;12.768;2023-03-01T05:20:01;97560.0;;;
68446;BMP280;35789;48.414;12.768;2023-03-01T05:25:01;97570.0;;;
68446;BMP280;35789;48.414;12.768;2023-03-01T05:30:01;97560.0;;;
68446;BMP280;35789;48.414;12.768;2023-03-01T05:35:00;97560.0;;;
68446;BMP280;35789;48.414;12.768;2023-03-01T05:40:00;97560.0;;;
68446;BMP280;35789;48.414;12.768;2023-03-01T05:45:00;97550.0;;;
68446;BMP280;35789;48.414;12.768;2023-03-01T05:50:01;97540.0;;;
68446;BMP280;35789;48.414;12.768;2023-03-01T05:55:00;97550.0;;;
68446;BMP280;35789;48.414;12.768;2023-03-01T06:00:01;97560.0;;;
68446;BMP280;35789;48.414;12.768;2023-03-01T06:05:00;97560.0;;;
68446;BMP280;35789;48.414;12.768;2023-03-01T06:10:01;97550.0;;;
68446;BMP280;35789;48.414;12.768;2023-03-01T06:15:02;97560.0;;;
68446;BMP280;35789;48.414;12.768;2023-03-01T06:20:00;97560.0;;;
68446;BMP280;35789;48.414;12.768;2023-03-01T06:25:00;97560.0;;;
68446;BMP280;35789;48.414;12.768;2023-03-01T06:30:00;97560.0;;;
68446;BMP280;35789;48.414;12.768;2023-03-01T06:35:00;97560.0;;;
68446;BMP280;35789;48.414;12.768;2023-03-01T06:40:00;97560.0;;;
68446;BMP280;35789;48.414;12.768;2023-03-01T06:45:06;97560.0;;;
68446;BMP280;35789;48.414;12.768;2023-03-01T06:50:01;97560.0;;;
68446;BMP280;35789;48.414;12.768;2023-03-01T06:55:01;97560.0;;;
68446;BMP280;35789;48.414;12.768;2023-03-01T07:00:01;97560.0;;;
68446;BMP280;35789;48.414;12.768;2023-03-01T07:05:00;97560.0;;;
68446;BMP280;35789;48.414;12.768;2023-03-01T07:10:00;97560.0;;;
68446;BMP280;35789;48.414;12.768;2023-03-01T07:15:00;97550.0;;;
68446;BMP280;35789;48.414;12.768;2023-03-01T07:20:00;97540.0;;;
68446;BMP280;35789;48.414;12.768;2023-03-01T07:25:00;97540.0;;;
68446;BMP280;35789;48.414;12.768;2023-03-01T07:30:01;97550.0;;;
68446;BMP280;35789;48.414;12.768;2023-03-01T07:35:00;97550.0;;;
68446;BMP280;35789;48.414;12.768;2023-03-01T07:40:00;97540.0;;;
68446;BMP280;35789;48.414;12.768;2023-03-01T07:45:00;97550.0;;;
68446;BMP280;35789;48.414;12.768;2023-03-01T07:50:00;97540.0;;;
68446;BMP280;35789;48.414;12.768;2023-03-01T07:55:00;97540.0;;;
68446;BMP280;35789;48.414;12.768;2023-03-01T08:00:00;97530.0;;;
68446;BMP280;35789;48.414;12.768;2023-03-01T08:05:00;97530.0;;;
68446;BMP280;35789;48.414;12.768;2023-03-01T08:10:00;97520.0;;;
68446;BMP280;35789;48.414;12.768;2023-03-01T08:15:00;97530.0;;;
68446;BMP280;35789;48.414;12.768;2023-03-01T08:20:00;97530.0;;;
68446;BMP280;35789;48.414;12.768;2023-03-01T08:25:00;97530.0;;;
68446;BMP280;35789;48.414;12.768;2023-03-01T08:30:00;97510.0;;;
68446;BMP280;35789;48.414;12.768;2023-03-01T08:35:00;97510.0;;;
68446;BMP280;35789;48.414;12.768;2023-03-01T08:40:01;97510.0;;;
68446;BMP280;35789;48.414;12.768;2023-03-01T08:45:00;97500.0;;;
68446;BMP280;35789;48.414;12.768;2023-03-01T08:50:01;97480.0;;;
68446;BMP280;35789;48.414;12.768;2023-03-01T08:55:00;97490.0;;;
68446;BMP280;35789;48.414;12.768;2023-03-01T09:00:00;97480.0;;;
68446;BMP280;35789;48.414;12.768;2023-03-01T09:05:01;97490.0;;;
68446;BMP280;35789;48.414;12.768;2023-03-01T09:10:00;97480.0;;;
68446;BMP280;35789;48.414;12.768;2023-03-01T09:15:00;97480.0;;;
68446;BMP280;35789;48.414;12.768;2023-03-01T09:20:00;97470.0;;;
68446;BMP280;35789;48.414;12.768;2023-03-01T09:25:00;97470.0;;;
68446;BMP280;35789;48.414;12.768;2023-03-01T09:30:00;97470.0;;;
68446;BMP280;35789;48.414;12.768;2023-03-01T09:35:00;97450.0;;;
68446;BMP280;35789;48.414;12.768;2023-03-01T09:40:01;97450.0;;;
68446;BMP280;35789;48.414;12.768;2023-03-01T09:45:05;97440.0;;;
68446;BMP280;35789;48.414;12.768;2023-03-01T09:50:09;97440.0;;;
68446;BMP280;35789;48.414;12.768;2023-03-01T09:55:04;97440.0;;;
68446;BMP280;35789;48.414;12.768;2023-03-01T10:00:15;97440.0;;;
68446;BMP280;35789;48.414;12.768;2023-03-01T10:05:26;97430.0;;;
68446;BMP280;35789;48.414;12.768;2023-03-01T10:10:00;97430.0;;;
68446;BMP280;35789;48.414;12.768;2023-03-01T10:15:08;97420.0;;;
68446;BMP280;35789;48.414;12.768;2023-03-01T10:20:16;97410.0;;;
68446;BMP280;35789;48.414;12.768;2023-03-01T10:25:03;97390.0;;;
68446;BMP280;35789;48.414;12.768;2023-03-01T10:30:11;97380.0;;;
68446;BMP280;35789;48.414;12.768;2023-03-01T10:35:00;97380.0;;;
68446;BMP280;35789;48.414;12.768;2023-03-01T10:40:07;97370.0;;;
68446;BMP280;35789;48.414;12.768;2023-03-01T10:45:29;97360.0;;;
68446;BMP280;35789;48.414;12.768;2023-03-01T10:50:03;97360.0;;;
68446;BMP280;35789;48.414;12.768;2023-03-01T10:55:23;97340.0;;;
68446;BMP280;35789;48.414;12.768;2023-03-01T11:00:21;97320.0;;;
68446;BMP280;35789;48.414;12.768;2023-03-01T11:05:15;97320.0;;;
68446;BMP280;35789;48.414;12.768;2023-03-01T11:10:11;97310.0;;;
68446;BMP280;35789;48.414;12.768;2023-03-01T11:15:00;97300.0;;;
68446;BMP280;35789;48.414;12.768;2023-03-01T11:20:10;97290.0;;;
68446;BMP280;35789;48.414;12.768;2023-03-01T11:25:02;97280.0;;;
68446;BMP280;35789;48.414;12.768;2023-03-01T11:30:06;97260.0;;;
68446;BMP280;35789;48.414;12.768;2023-03-01T11:35:10;97250.0;;;
68446;BMP280;35789;48.414;12.768;2023-03-01T11:40:11;97240.0;;;
68446;BMP280;35789;48.414;12.768;2023-03-01T11:45:10;97240.0;;;
68446;BMP280;35789;48.414;12.768;2023-03-01T11:50:16;97220.0;;;
68446;BMP280;35789;48.414;12.768;2023-03-01T11:55:21;97230.0;;;
68446;BMP280;35789;48.414;12.768;2023-03-01T12:00:20;97210.0;;;
68446;BMP280;35789;48.414;12.768;2023-03-01T12:05:23;97200.0;;;
68446;BMP280;35789;48.414;12.768;2023-03-01T12:10:20;97200.0;;;
68446;BMP280;35789;48.414;12.768;2023-03-01T12:15:28;97190.0;;;
68446;BMP280;35789;48.414;12.768;2023-03-01T12:20:17;97180.0;;;
68446;BMP280;35789;48.414;12.768;2023-03-01T12:25:16;97180.0;;;
68446;BMP280;35789;48.414;12.768;2023-03-01T12:30:21;97170.0;;;
68446;BMP280;35789;48.414;12.768;2023-03-01T12:35:16;97170.0;;;
68446;BMP280;35789;48.414;12.768;2023-03-01T12:40:20;97170.0;;;
68446;BMP280;35789;48.414;12.768;2023-03-01T12:45:27;97160.0;;;
68446;BMP280;35789;48.414;12.768;2023-03-01T12:50:05;97170.0;;;
68446;BMP280;35789;48.414;12.768;2023-03-01T12:55:08;97150.0;;;
68446;BMP280;35789;48.414;12.768;2023-03-01T13:00:21;97160.0;;;
68446;BMP280;35789;48.414;12.768;2023-03-01T13:05:19;97150.0;;;
68446;BMP280;35789;48.414;12.768;2023-03-01T13:10:17;97150.0;;;
68446;BMP280;35789;48.414;12.768;2023-03-01T13:15:00;97150.0;;;
68446;BMP280;35789;48.414;12.768;2023-03-01T13:20:00;97140.0;;;
68446;BMP280;35789;48.414;12.768;2023-03-01T13:25:12;97120.0;;;
68446;BMP280;35789;48.414;12.768;2023-03-01T13:30:00;97110.0;;;
68446;BMP280;35789;48.414;12.768;2023-03-01T13:35:02;97130.0;;;
68446;BMP280;35789;48.414;12.768;2023-03-01T13:45:01;97110.0;;;
68446;BMP280;35789;48.414;12.768;2023-03-01T13:50:03;97120.0;;;
68446;BMP280;35789;48.414;12.768;2023-03-01T13:55:03;97110.0;;;
68446;BMP280;35789;48.414;12.768;2023-03-01T14:00:00;97100.0;;;
68446;BMP280;35789;48.414;12.768;2023-03-01T14:05:01;97100.0;;;
68446;BMP280;35789;48.414;12.768;2023-03-01T14:10:04;97100.0;;;
68446;BMP280;35789;48.414;12.768;2023-03-01T14:15:05;97090.0;;;
68446;BMP280;35789;48.414;12.768;2023-03-01T14:20:09;97080.0;;;
68446;BMP280;35789;48.414;12.768;2023-03-01T14:25:05;97080.0;;;
68446;BMP280;35789;48.414;12.768;2023-03-01T14:30:10;97060.0;;;
68446;BMP280;35789;48.414;12.768;2023-03-01T14:35:01;97040.0;;;
68446;BMP280;35789;48.414;12.768;2023-03-01T14:40:04;97040.0;;;
68446;BMP280;35789;48.414;12.768;2023-03-01T14:45:03;97050.0;;;
68446;BMP280;35789;48.414;12.768;2023-03-01T14:50:07;97060.0;;;
68446;BMP280;35789;48.414;12.768;2023-03-01T14:55:05;97050.0;;;
68446;BMP280;35789;48.414;12.768;2023-03-01T15:00:06;97040.0;;;
68446;BMP280;35789;48.414;12.768;2023-03-01T15:05:04;97050.0;;;
68446;BMP280;35789;48.414;12.768;2023-03-01T15:10:02;97050.0;;;
68446;BMP280;35789;48.414;12.768;2023-03-01T15:15:01;97050.0;;;
68446;BMP280;35789;48.414;12.768;2023-03-01T15:20:04;97050.0;;;
68446;BMP280;35789;48.414;12.768;2023-03-01T15:25:00;97050.0;;;
68446;BMP280;35789;48.414;12.768;2023-03-01T15:30:03;97050.0;;;
68446;BMP280;35789;48.414;12.768;2023-03-01T15:40:00;97050.0;;;
68446;BMP280;35789;48.414;12.768;2023-03-01T15:45:10;97050.0;;;
68446;BMP280;35789;48.414;12.768;2023-03-01T15:50:01;97040.0;;;
68446;BMP280;35789;48.414;12.768;2023-03-01T15:55:05;97050.0;;;
68446;BMP280;35789;48.414;12.768;2023-03-01T16:00:00;97060.0;;;
68446;BMP280;35789;48.414;12.768;2023-03-01T16:05:00;97050.0;;;
68446;BMP280;35789;48.414;12.768;2023-03-01T16:10:00;97060.0;;;
68446;BMP280;35789;48.414;12.768;2023-03-01T16:15:01;97060.0;;;
68446;BMP280;35789;48.414;12.768;2023-03-01T16:20:00;97060.0;;;
68446;BMP280;35789;48.414;12.768;2023-03-01T16:25:00;97060.0;;;
68446;BMP280;35789;48.414;12.768;2023-03-01T16:30:00;97060.0;;;
68446;BMP280;35789;48.414;12.768;2023-03-01T16:35:00;97060.0;;;
68446;BMP280;35789;48.414;12.768;2023-03-01T16:40:01;97070.0;;;
68446;BMP280;35789;48.414;12.768;2023-03-01T16:45:00;97080.0;;;
68446;BMP280;35789;48.414;12.768;2023-03-01T16:50:01;97080.0;;;
68446;BMP280;35789;48.414;12.768;2023-03-01T16:55:02;97090.0;;;
68446;BMP280;35789;48.414;12.768;2023-03-01T17:00:00;97100.0;;;
68446;BMP280;35789;48.414;12.768;2023-03-01T17:05:01;97100.0;;;
68446;BMP280;35789;48.414;12.768;2023-03-01T17:10:01;97110.0;;;
68446;BMP280;35789;48.414;12.768;2023-03-01T17:15:00;97120.0;;;
68446;BMP280;35789;48.414;12.768;2023-03-01T17:20:00;97130.0;;;
68446;BMP280;35789;48.414;12.768;2023-03-01T17:25:01;97130.0;;;
68446;BMP280;35789;48.414;12.768;2023-03-01T17:30:01;97130.0;;;
68446;BMP280;35789;48.414;12.768;2023-03-01T17:35:00;97140.0;;;
68446;BMP280;35789;48.414;12.768;2023-03-01T17:40:00;97140.0;;;
68446;BMP280;35789;48.414;12.768;2023-03-01T17:45:00;97140.0;;;
68446;BMP280;35789;48.414;12.768;2023-03-01T17:50:00;97140.0;;;
68446;BMP280;35789;48.414;12.768;2023-03-01T17:55:00;97150.0;;;
68446;BMP280;35789;48.414;12.768;2023-03-01T18:00:00;97150.0;;;
68446;BMP280;35789;48.414;12.768;2023-03-01T18:05:00;97150.0;;;
68446;BMP280;35789;48.414;12.768;2023-03-01T18:10:01;97160.0;;;
68446;BMP280;35789;48.414;12.768;2023-03-01T18:15:00;97160.0;;;
68446;BMP280;35789;48.414;12.768;2023-03-01T18:20:00;97150.0;;;
68446;BMP280;35789;48.414;12.768;2023-03-01T18:25:00;97150.0;;;
68446;BMP280;35789;48.414;12.768;2023-03-01T18:30:00;97160.0;;;
68446;BMP280;35789;48.414;12.768;2023-03-01T18:35:00;97160.0;;;
68446;BMP280;35789;48.414;12.768;2023-03-01T18:40:00;97150.0;;;
68446;BMP280;35789;48.414;12.768;2023-03-01T18:45:00;97160.0;;;
68446;BMP280;35789;48.414;12.768;2023-03-01T18:50:00;97170.0;;;
68446;BMP280;35789;48.414;12.768;2023-03-01T18:55:00;97160.0;;;
68446;BMP280;35789;48.414;12.768;2023-03-01T19:00:00;97160.0;;;
68446;BMP280;35789;48.414;12.768;2023-03-01T19:05:01;97170.0;;;
68446;BMP280;35789;48.414;12.768;2023-03-01T19:10:00;97180.0;;;
68446;BMP280;35789;48.414;12.768;2023-03-01T19:15:00;97180.0;;;
68446;BMP280;35789;48.414;12.768;2023-03-01T19:20:00;97180.0;;;
68446;BMP280;35789;48.414;12.768;2023-03-01T19:25:00;97170.0;;;
68446;BMP280;35789;48.414;12.768;2023-03-01T19:30:00;97170.0;;;
68446;BMP280;35789;48.414;12.768;2023-03-01T19:35:00;97170.0;;;
68446;BMP280;35789;48.414;12.768;2023-03-01T19:40:00;97180.0;;;
68446;BMP280;35789;48.414;12.768;2023-03-01T19:45:00;97190.0;;;
68446;BMP280;35789;48.414;12.768;2023-03-01T19:50:00;97180.0;;;
68446;BMP280;35789;48.414;12.768;2023-03-01T19:55:00;97180.0;;;
68446;BMP280;35789;48.414;12.768;2023-03-01T20:00:00;97170.0;;;
68446;BMP280;35789;48.414;12.768;2023-03-01T20:05:00;97190.0;;;
68446;BMP280;35789;48.414;12.768;2023-03-01T20:10:01;97180.0;;;
68446;BMP280;35789;48.414;12.768;2023-03-01T20:15:00;97190.0;;;
68446;BMP280;35789;48.414;12.768;2023-03-01T20:20:01;97190.0;;;
68446;BMP280;35789;48.414;12.768;2023-03-01T20:25:01;97190.0;;;
68446;BMP280;35789;48.414;12.768;2023-03-01T20:30:00;97190.0;;;
68446;BMP280;35789;48.414;12.768;2023-03-01T20:35:00;97180.0;;;
68446;BMP280;35789;48.414;12.768;2023-03-01T20:40:00;97190.0;;;
68446;BMP280;35789;48.414;12.768;2023-03-01T20:45:00;97190.0;;;
68446;BMP280;35789;48.414;12.768;2023-03-01T20:50:00;97190.0;;;
68446;BMP280;35789;48.414;12.768;2023-03-01T20:55:00;97190.0;;;
68446;BMP280;35789;48.414;12.768;2023-03-01T21:00:02;97180.0;;;
68446;BMP280;35789;48.414;12.768;2023-03-01T21:05:00;97180.0;;;
68446;BMP280;35789;48.414;12.768;2023-03-01T21:10:00;97180.0;;;
68446;BMP280;35789;48.414;12.768;2023-03-01T21:15:00;97190.0;;;
68446;BMP280;35789;48.414;12.768;2023-03-01T21:20:00;97180.0;;;
68446;BMP280;35789;48.414;12.768;2023-03-01T21:25:00;97170.0;;;
68446;BMP280;35789;48.414;12.768;2023-03-01T21:30:00;97170.0;;;
68446;BMP280;35789;48.414;12.768;2023-03-01T21:35:00;97160.0;;;
68446;BMP280;35789;48.414;12.768;2023-03-01T21:40:00;97140.0;;;
68446;BMP280;35789;48.414;12.768;2023-03-01T21:45:00;97150.0;;;
68446;BMP280;35789;48.414;12.768;2023-03-01T21:50:00;97150.0;;;
68446;BMP280;35789;48.414;12.768;2023-03-01T21:55:00;97140.0;;;
68446;BMP280;35789;48.414;12.768;2023-03-01T22:00:00;97140.0;;;
68446;BMP280;35789;48.414;12.768;2023-03-01T22:05:00;97130.0;;;
68446;BMP280;35789;48.414;12.768;2023-03-01T22:10:00;97120.0;;;
68446;BMP280;35789;48.414;12.768;2023-03-01T22:15:00;97120.0;;;
68446;BMP280;35789;48.414;12.768;2023-03-01T22:20:00;97110.0;;;
68446;BMP280;35789;48.414;12.768;2023-03-01T22:25:01;97120.0;;;
68446;BMP280;35789;48.414;12.768;2023-03-01T22:30:00;97120.0;;;
68446;BMP280;35789;48.414;12.768;2023-03-01T22:35:00;97120.0;;;
68446;BMP280;35789;48.414;12.768;2023-03-01T22:40:01;97120.0;;;
68446;BMP280;35789;48.414;12.768;2023-03-01T22:45:00;97120.0;;;
68446;BMP280;35789;48.414;12.768;2023-03-01T22:50:00;97120.0;;;
68446;BMP280;35789;48.414;12.768;2023-03-01T22:55:00;97120.0;;;
68446;BMP280;35789;48.414;12.768;2023-03-01T23:00:00;97110.0;;;
68446;BMP280;35789;48.414;12.768;2023-03-01T23:05:00;97110.0;;;
68446;BMP280;35789;48.414;12.768;2023-03-01T23:10:00;97090.0;;;
68446;BMP280;35789;48.414;12.768;2023-03-01T23:15:00;97090.0;;;
68446;BMP280;35789;48.414;12.768;2023-03-01T23:20:00;97090.0;;;
68446;BMP280;35789;48.414;12.768;2023-03-01T23:25:01;97090.0;;;
68446;BMP280;35789;48.414;12.768;2023-03-01T23:30:00;97080.0;;;
68446;BMP280;35789;48.414;12.768;2023-03-01T23:35:00;97090.0;;;
68446;BMP280;35789;48.414;12.768;2023-03-01T23:40:00;97090.0;;;
68446;BMP280;35789;48.414;12.768;2023-03-01T23:45:00;97080.0;;;
68446;BMP280;35789;48.414;12.768;2023-03-01T23:50:00;97090.0;;;
68446;BMP280;35789;48.414;12.768;2023-03-01T23:55:00;97090.0;;;
